sensor_id;sensor_type;location;lat;lon;timestamp;P1;durP1;ratioP1;P2;durP2;ratioP2
43877;SDS011;29815;48.184;11.268;2022-09-01T00:00:24;25.35;;;22.42;;
43877;SDS011;29815;48.184;11.268;2022-09-01T00:02:59;26.73;;;23.52;;
43877;SDS011;29815;48.184;11.268;2022-09-01T00:05:30;23.02;;;20.52;;
43877;SDS011;29815;48.184;11.268;2022-09-01T00:08:01;27.55;;;21.92;;
43877;SDS011;29815;48.184;11.268;2022-09-01T00:10:32;25.45;;;22.55;;
43877;SDS011;29815;48.184;11.268;2022-09-01T00:13:05;24.70;;;22.02;;
43877;SDS011;29815;48.184;11.268;2022-09-01T00:15:36;25.52;;;22.48;;
43877;SDS011;29815;48.184;11.268;2022-09-01T00:18:06;24.88;;;22.08;;
43877;SDS011;29815;48.184;11.268;2022-09-01T00:20:36;24.35;;;21.75;;
43877;SDS011;29815;48.184;11.268;2022-09-01T00:23:07;26.60;;;22.90;;
43877;SDS011;29815;48.184;11.268;2022-09-01T00:25:37;23.85;;;21.30;;
43877;SDS011;29815;48.184;11.268;2022-09-01T00:28:09;25.85;;;22.17;;
43877;SDS011;29815;48.184;11.268;2022-09-01T00:30:40;22.57;;;20.17;;
43877;SDS011;29815;48.184;11.268;2022-09-01T00:33:10;24.08;;;21.58;;
43877;SDS011;29815;48.184;11.268;2022-09-01T00:35:42;26.88;;;21.98;;
43877;SDS011;29815;48.184;11.268;2022-09-01T00:38:12;28.50;;;24.98;;
43877;SDS011;29815;48.184;11.268;2022-09-01T00:40:43;25.83;;;23.17;;
43877;SDS011;29815;48.184;11.268;2022-09-01T00:43:16;23.42;;;20.95;;
43877;SDS011;29815;48.184;11.268;2022-09-01T00:45:51;23.40;;;20.88;;
43877;SDS011;29815;48.184;11.268;2022-09-01T00:48:22;27.52;;;21.83;;
43877;SDS011;29815;48.184;11.268;2022-09-01T00:50:52;24.77;;;21.77;;
43877;SDS011;29815;48.184;11.268;2022-09-01T00:53:23;24.02;;;21.55;;
43877;SDS011;29815;48.184;11.268;2022-09-01T00:55:54;22.40;;;20.08;;
43877;SDS011;29815;48.184;11.268;2022-09-01T00:58:26;24.45;;;21.60;;
43877;SDS011;29815;48.184;11.268;2022-09-01T01:00:58;24.00;;;21.50;;
43877;SDS011;29815;48.184;11.268;2022-09-01T01:03:29;26.60;;;23.75;;
43877;SDS011;29815;48.184;11.268;2022-09-01T01:06:02;26.38;;;23.67;;
43877;SDS011;29815;48.184;11.268;2022-09-01T01:08:37;25.35;;;22.65;;
43877;SDS011;29815;48.184;11.268;2022-09-01T01:11:24;26.13;;;22.55;;
43877;SDS011;29815;48.184;11.268;2022-09-01T01:14:01;24.27;;;20.77;;
43877;SDS011;29815;48.184;11.268;2022-09-01T01:16:39;25.02;;;21.10;;
43877;SDS011;29815;48.184;11.268;2022-09-01T01:19:14;26.88;;;24.00;;
43877;SDS011;29815;48.184;11.268;2022-09-01T01:22:12;24.27;;;21.27;;
43877;SDS011;29815;48.184;11.268;2022-09-01T01:25:08;26.88;;;22.05;;
43877;SDS011;29815;48.184;11.268;2022-09-01T01:27:39;26.75;;;22.77;;
43877;SDS011;29815;48.184;11.268;2022-09-01T01:30:10;23.85;;;21.25;;
43877;SDS011;29815;48.184;11.268;2022-09-01T01:32:43;24.38;;;21.95;;
43877;SDS011;29815;48.184;11.268;2022-09-01T01:35:15;24.70;;;21.98;;
43877;SDS011;29815;48.184;11.268;2022-09-01T01:37:48;27.17;;;23.75;;
43877;SDS011;29815;48.184;11.268;2022-09-01T01:40:20;29.25;;;24.30;;
43877;SDS011;29815;48.184;11.268;2022-09-01T01:42:51;25.77;;;21.52;;
43877;SDS011;29815;48.184;11.268;2022-09-01T01:45:27;26.73;;;22.35;;
43877;SDS011;29815;48.184;11.268;2022-09-01T01:47:58;27.08;;;23.95;;
43877;SDS011;29815;48.184;11.268;2022-09-01T01:50:34;26.85;;;23.42;;
43877;SDS011;29815;48.184;11.268;2022-09-01T01:53:06;27.42;;;24.42;;
43877;SDS011;29815;48.184;11.268;2022-09-01T01:55:40;29.30;;;24.70;;
43877;SDS011;29815;48.184;11.268;2022-09-01T01:58:11;27.08;;;23.88;;
43877;SDS011;29815;48.184;11.268;2022-09-01T02:00:42;26.60;;;23.65;;
43877;SDS011;29815;48.184;11.268;2022-09-01T02:03:17;27.77;;;24.20;;
43877;SDS011;29815;48.184;11.268;2022-09-01T02:05:53;30.02;;;25.45;;
43877;SDS011;29815;48.184;11.268;2022-09-01T02:08:23;30.48;;;25.17;;
43877;SDS011;29815;48.184;11.268;2022-09-01T02:10:56;29.80;;;25.03;;
43877;SDS011;29815;48.184;11.268;2022-09-01T02:13:26;26.50;;;23.60;;
43877;SDS011;29815;48.184;11.268;2022-09-01T02:15:58;28.75;;;25.58;;
43877;SDS011;29815;48.184;11.268;2022-09-01T02:18:32;30.02;;;26.20;;
43877;SDS011;29815;48.184;11.268;2022-09-01T02:21:09;30.15;;;26.92;;
43877;SDS011;29815;48.184;11.268;2022-09-01T02:23:45;30.98;;;27.58;;
43877;SDS011;29815;48.184;11.268;2022-09-01T02:26:32;29.08;;;25.67;;
43877;SDS011;29815;48.184;11.268;2022-09-01T02:29:08;28.98;;;25.88;;
43877;SDS011;29815;48.184;11.268;2022-09-01T02:31:45;29.15;;;26.08;;
43877;SDS011;29815;48.184;11.268;2022-09-01T02:34:17;29.08;;;25.85;;
43877;SDS011;29815;48.184;11.268;2022-09-01T02:36:52;27.83;;;24.83;;
43877;SDS011;29815;48.184;11.268;2022-09-01T02:39:26;30.92;;;27.20;;
43877;SDS011;29815;48.184;11.268;2022-09-01T02:42:01;29.23;;;25.65;;
43877;SDS011;29815;48.184;11.268;2022-09-01T02:44:32;28.52;;;24.98;;
43877;SDS011;29815;48.184;11.268;2022-09-01T02:47:07;33.38;;;27.00;;
43877;SDS011;29815;48.184;11.268;2022-09-01T02:49:37;30.75;;;27.10;;
43877;SDS011;29815;48.184;11.268;2022-09-01T02:52:09;33.20;;;27.70;;
43877;SDS011;29815;48.184;11.268;2022-09-01T02:54:42;30.88;;;26.20;;
43877;SDS011;29815;48.184;11.268;2022-09-01T02:57:15;30.55;;;26.60;;
43877;SDS011;29815;48.184;11.268;2022-09-01T02:59:45;29.48;;;26.25;;
43877;SDS011;29815;48.184;11.268;2022-09-01T03:02:14;29.95;;;26.70;;
43877;SDS011;29815;48.184;11.268;2022-09-01T03:04:44;31.75;;;26.02;;
43877;SDS011;29815;48.184;11.268;2022-09-01T03:07:16;36.03;;;29.23;;
43877;SDS011;29815;48.184;11.268;2022-09-01T03:09:48;30.67;;;25.53;;
43877;SDS011;29815;48.184;11.268;2022-09-01T03:12:20;31.55;;;27.77;;
43877;SDS011;29815;48.184;11.268;2022-09-01T03:14:51;29.70;;;25.20;;
43877;SDS011;29815;48.184;11.268;2022-09-01T03:17:20;31.20;;;27.67;;
43877;SDS011;29815;48.184;11.268;2022-09-01T03:19:50;32.30;;;26.67;;
43877;SDS011;29815;48.184;11.268;2022-09-01T03:22:21;31.90;;;28.15;;
43877;SDS011;29815;48.184;11.268;2022-09-01T03:24:50;31.48;;;27.27;;
43877;SDS011;29815;48.184;11.268;2022-09-01T03:27:21;35.33;;;29.13;;
43877;SDS011;29815;48.184;11.268;2022-09-01T03:29:51;32.20;;;27.05;;
43877;SDS011;29815;48.184;11.268;2022-09-01T03:32:20;32.88;;;28.27;;
43877;SDS011;29815;48.184;11.268;2022-09-01T03:34:50;31.80;;;25.38;;
43877;SDS011;29815;48.184;11.268;2022-09-01T03:37:21;30.10;;;26.80;;
43877;SDS011;29815;48.184;11.268;2022-09-01T03:39:53;29.63;;;25.07;;
43877;SDS011;29815;48.184;11.268;2022-09-01T03:42:27;29.80;;;26.43;;
43877;SDS011;29815;48.184;11.268;2022-09-01T03:44:57;31.30;;;27.65;;
43877;SDS011;29815;48.184;11.268;2022-09-01T03:47:30;27.50;;;24.45;;
43877;SDS011;29815;48.184;11.268;2022-09-01T03:49:59;30.70;;;26.90;;
43877;SDS011;29815;48.184;11.268;2022-09-01T03:52:29;29.83;;;25.38;;
43877;SDS011;29815;48.184;11.268;2022-09-01T03:54:59;29.25;;;26.05;;
43877;SDS011;29815;48.184;11.268;2022-09-01T03:57:30;27.33;;;23.95;;
43877;SDS011;29815;48.184;11.268;2022-09-01T04:00:01;30.40;;;23.92;;
43877;SDS011;29815;48.184;11.268;2022-09-01T04:02:46;31.08;;;24.58;;
43877;SDS011;29815;48.184;11.268;2022-09-01T04:05:24;30.15;;;25.55;;
43877;SDS011;29815;48.184;11.268;2022-09-01T04:07:58;33.83;;;28.55;;
43877;SDS011;29815;48.184;11.268;2022-09-01T04:10:33;30.30;;;26.35;;
43877;SDS011;29815;48.184;11.268;2022-09-01T04:13:23;30.70;;;25.85;;
43877;SDS011;29815;48.184;11.268;2022-09-01T04:15:56;35.92;;;28.45;;
43877;SDS011;29815;48.184;11.268;2022-09-01T04:18:26;29.95;;;24.58;;
43877;SDS011;29815;48.184;11.268;2022-09-01T04:20:57;29.55;;;24.65;;
43877;SDS011;29815;48.184;11.268;2022-09-01T04:23:28;31.08;;;27.27;;
43877;SDS011;29815;48.184;11.268;2022-09-01T04:26:08;29.38;;;25.30;;
43877;SDS011;29815;48.184;11.268;2022-09-01T04:28:48;30.65;;;25.25;;
43877;SDS011;29815;48.184;11.268;2022-09-01T04:31:19;27.63;;;24.63;;
43877;SDS011;29815;48.184;11.268;2022-09-01T04:33:51;33.97;;;26.90;;
43877;SDS011;29815;48.184;11.268;2022-09-01T04:36:22;28.38;;;23.85;;
43877;SDS011;29815;48.184;11.268;2022-09-01T04:38:57;26.42;;;23.60;;
43877;SDS011;29815;48.184;11.268;2022-09-01T04:41:36;27.83;;;23.30;;
43877;SDS011;29815;48.184;11.268;2022-09-01T04:44:10;26.17;;;23.40;;
43877;SDS011;29815;48.184;11.268;2022-09-01T04:46:46;29.90;;;25.33;;
43877;SDS011;29815;48.184;11.268;2022-09-01T04:49:17;29.55;;;26.30;;
43877;SDS011;29815;48.184;11.268;2022-09-01T04:51:52;30.63;;;26.20;;
43877;SDS011;29815;48.184;11.268;2022-09-01T04:54:23;27.42;;;24.45;;
43877;SDS011;29815;48.184;11.268;2022-09-01T04:56:53;29.58;;;26.27;;
43877;SDS011;29815;48.184;11.268;2022-09-01T04:59:25;30.83;;;24.98;;
43877;SDS011;29815;48.184;11.268;2022-09-01T05:01:59;31.95;;;26.92;;
43877;SDS011;29815;48.184;11.268;2022-09-01T05:04:30;29.08;;;25.83;;
43877;SDS011;29815;48.184;11.268;2022-09-01T05:07:02;33.67;;;28.58;;
43877;SDS011;29815;48.184;11.268;2022-09-01T05:09:37;32.95;;;27.80;;
43877;SDS011;29815;48.184;11.268;2022-09-01T05:12:19;35.17;;;30.08;;
43877;SDS011;29815;48.184;11.268;2022-09-01T05:14:52;34.80;;;27.83;;
43877;SDS011;29815;48.184;11.268;2022-09-01T05:17:22;30.73;;;27.38;;
43877;SDS011;29815;48.184;11.268;2022-09-01T05:19:55;31.95;;;28.48;;
43877;SDS011;29815;48.184;11.268;2022-09-01T05:22:26;32.95;;;27.92;;
43877;SDS011;29815;48.184;11.268;2022-09-01T05:25:02;37.25;;;29.45;;
43877;SDS011;29815;48.184;11.268;2022-09-01T05:27:43;31.98;;;27.92;;
43877;SDS011;29815;48.184;11.268;2022-09-01T05:30:18;33.72;;;29.35;;
43877;SDS011;29815;48.184;11.268;2022-09-01T05:32:48;30.55;;;24.65;;
43877;SDS011;29815;48.184;11.268;2022-09-01T05:35:22;30.60;;;27.10;;
43877;SDS011;29815;48.184;11.268;2022-09-01T05:37:59;34.30;;;28.52;;
43877;SDS011;29815;48.184;11.268;2022-09-01T05:40:28;29.50;;;26.33;;
43877;SDS011;29815;48.184;11.268;2022-09-01T05:42:59;32.70;;;27.55;;
43877;SDS011;29815;48.184;11.268;2022-09-01T05:45:30;28.27;;;25.40;;
43877;SDS011;29815;48.184;11.268;2022-09-01T05:48:23;32.10;;;27.52;;
43877;SDS011;29815;48.184;11.268;2022-09-01T05:50:55;29.13;;;25.73;;
43877;SDS011;29815;48.184;11.268;2022-09-01T05:53:26;26.48;;;23.67;;
43877;SDS011;29815;48.184;11.268;2022-09-01T05:55:57;29.80;;;26.50;;
43877;SDS011;29815;48.184;11.268;2022-09-01T05:58:34;26.40;;;22.92;;
43877;SDS011;29815;48.184;11.268;2022-09-01T06:01:27;29.52;;;25.17;;
43877;SDS011;29815;48.184;11.268;2022-09-01T06:04:01;24.92;;;22.23;;
43877;SDS011;29815;48.184;11.268;2022-09-01T06:06:35;29.15;;;23.73;;
43877;SDS011;29815;48.184;11.268;2022-09-01T06:09:32;26.88;;;22.80;;
43877;SDS011;29815;48.184;11.268;2022-09-01T06:12:06;24.75;;;22.15;;
43877;SDS011;29815;48.184;11.268;2022-09-01T06:14:44;26.30;;;22.83;;
43877;SDS011;29815;48.184;11.268;2022-09-01T06:17:19;25.58;;;22.75;;
43877;SDS011;29815;48.184;11.268;2022-09-01T06:19:54;26.02;;;23.23;;
43877;SDS011;29815;48.184;11.268;2022-09-01T06:22:26;25.15;;;22.55;;
43877;SDS011;29815;48.184;11.268;2022-09-01T06:24:57;25.20;;;22.48;;
43877;SDS011;29815;48.184;11.268;2022-09-01T06:27:33;22.65;;;20.08;;
43877;SDS011;29815;48.184;11.268;2022-09-01T06:30:08;25.80;;;22.83;;
43877;SDS011;29815;48.184;11.268;2022-09-01T06:33:00;22.90;;;20.48;;
43877;SDS011;29815;48.184;11.268;2022-09-01T06:35:36;22.52;;;20.20;;
43877;SDS011;29815;48.184;11.268;2022-09-01T06:38:06;20.45;;;17.98;;
43877;SDS011;29815;48.184;11.268;2022-09-01T06:40:43;20.75;;;18.60;;
43877;SDS011;29815;48.184;11.268;2022-09-01T06:43:18;20.98;;;18.80;;
43877;SDS011;29815;48.184;11.268;2022-09-01T06:45:50;20.73;;;18.52;;
43877;SDS011;29815;48.184;11.268;2022-09-01T06:48:24;22.50;;;20.23;;
43877;SDS011;29815;48.184;11.268;2022-09-01T06:51:08;21.13;;;18.92;;
43877;SDS011;29815;48.184;11.268;2022-09-01T06:53:44;22.00;;;19.02;;
43877;SDS011;29815;48.184;11.268;2022-09-01T06:56:24;19.45;;;17.50;;
43877;SDS011;29815;48.184;11.268;2022-09-01T06:58:59;19.02;;;17.02;;
43877;SDS011;29815;48.184;11.268;2022-09-01T07:01:52;18.23;;;16.27;;
43877;SDS011;29815;48.184;11.268;2022-09-01T07:04:49;19.95;;;17.27;;
43877;SDS011;29815;48.184;11.268;2022-09-01T07:07:19;21.65;;;18.42;;
43877;SDS011;29815;48.184;11.268;2022-09-01T07:10:28;18.25;;;16.38;;
43877;SDS011;29815;48.184;11.268;2022-09-01T07:13:06;17.92;;;16.13;;
43877;SDS011;29815;48.184;11.268;2022-09-01T07:15:37;17.02;;;15.30;;
43877;SDS011;29815;48.184;11.268;2022-09-01T07:18:31;16.80;;;15.07;;
43877;SDS011;29815;48.184;11.268;2022-09-01T07:21:04;17.55;;;15.82;;
43877;SDS011;29815;48.184;11.268;2022-09-01T07:27:27;17.27;;;14.93;;
43877;SDS011;29815;48.184;11.268;2022-09-01T07:30:19;17.88;;;15.57;;
43877;SDS011;29815;48.184;11.268;2022-09-01T07:32:51;15.63;;;13.45;;
43877;SDS011;29815;48.184;11.268;2022-09-01T07:35:24;17.17;;;14.40;;
43877;SDS011;29815;48.184;11.268;2022-09-01T07:37:56;18.50;;;13.40;;
43877;SDS011;29815;48.184;11.268;2022-09-01T07:40:46;16.98;;;15.15;;
43877;SDS011;29815;48.184;11.268;2022-09-01T07:43:58;16.98;;;14.85;;
43877;SDS011;29815;48.184;11.268;2022-09-01T07:46:35;18.30;;;15.30;;
43877;SDS011;29815;48.184;11.268;2022-09-01T07:49:09;17.63;;;15.73;;
43877;SDS011;29815;48.184;11.268;2022-09-01T07:51:58;16.17;;;14.10;;
43877;SDS011;29815;48.184;11.268;2022-09-01T07:54:32;16.13;;;14.40;;
43877;SDS011;29815;48.184;11.268;2022-09-01T07:57:03;16.30;;;14.65;;
43877;SDS011;29815;48.184;11.268;2022-09-01T07:59:35;16.30;;;14.60;;
43877;SDS011;29815;48.184;11.268;2022-09-01T08:02:18;15.88;;;14.27;;
43877;SDS011;29815;48.184;11.268;2022-09-01T08:04:48;17.27;;;15.48;;
43877;SDS011;29815;48.184;11.268;2022-09-01T08:07:18;18.58;;;16.38;;
43877;SDS011;29815;48.184;11.268;2022-09-01T08:09:50;17.23;;;15.32;;
43877;SDS011;29815;48.184;11.268;2022-09-01T08:12:28;16.90;;;15.18;;
43877;SDS011;29815;48.184;11.268;2022-09-01T08:14:57;17.05;;;15.40;;
43877;SDS011;29815;48.184;11.268;2022-09-01T08:17:49;17.77;;;15.38;;
43877;SDS011;29815;48.184;11.268;2022-09-01T08:20:22;17.27;;;15.48;;
43877;SDS011;29815;48.184;11.268;2022-09-01T08:22:55;14.90;;;13.52;;
43877;SDS011;29815;48.184;11.268;2022-09-01T08:25:37;16.05;;;14.45;;
43877;SDS011;29815;48.184;11.268;2022-09-01T08:28:09;15.65;;;14.05;;
43877;SDS011;29815;48.184;11.268;2022-09-01T08:30:41;15.97;;;14.43;;
43877;SDS011;29815;48.184;11.268;2022-09-01T08:36:17;13.45;;;12.10;;
43877;SDS011;29815;48.184;11.268;2022-09-01T08:38:52;14.70;;;13.27;;
43877;SDS011;29815;48.184;11.268;2022-09-01T08:41:26;16.25;;;14.57;;
43877;SDS011;29815;48.184;11.268;2022-09-01T08:44:27;13.07;;;11.77;;
43877;SDS011;29815;48.184;11.268;2022-09-01T08:47:08;14.35;;;12.82;;
43877;SDS011;29815;48.184;11.268;2022-09-01T08:49:43;14.02;;;12.65;;
43877;SDS011;29815;48.184;11.268;2022-09-01T08:52:25;12.30;;;11.10;;
43877;SDS011;29815;48.184;11.268;2022-09-01T08:55:05;12.55;;;10.75;;
43877;SDS011;29815;48.184;11.268;2022-09-01T08:57:49;11.27;;;10.10;;
43877;SDS011;29815;48.184;11.268;2022-09-01T09:03:11;10.60;;;9.55;;
43877;SDS011;29815;48.184;11.268;2022-09-01T09:05:55;10.82;;;9.82;;
43877;SDS011;29815;48.184;11.268;2022-09-01T09:08:47;10.95;;;9.90;;
43877;SDS011;29815;48.184;11.268;2022-09-01T09:11:38;9.35;;;8.30;;
43877;SDS011;29815;48.184;11.268;2022-09-01T09:14:40;9.88;;;8.98;;
43877;SDS011;29815;48.184;11.268;2022-09-01T09:17:28;10.98;;;9.40;;
43877;SDS011;29815;48.184;11.268;2022-09-01T09:20:05;10.02;;;9.15;;
43877;SDS011;29815;48.184;11.268;2022-09-01T09:26:03;10.73;;;9.48;;
43877;SDS011;29815;48.184;11.268;2022-09-01T09:28:34;9.98;;;8.90;;
43877;SDS011;29815;48.184;11.268;2022-09-01T09:31:25;9.10;;;8.20;;
43877;SDS011;29815;48.184;11.268;2022-09-01T09:34:05;8.98;;;8.05;;
43877;SDS011;29815;48.184;11.268;2022-09-01T09:36:56;9.52;;;8.52;;
43877;SDS011;29815;48.184;11.268;2022-09-01T09:39:44;8.75;;;7.93;;
43877;SDS011;29815;48.184;11.268;2022-09-01T09:42:42;8.80;;;7.90;;
43877;SDS011;29815;48.184;11.268;2022-09-01T09:45:33;10.45;;;7.70;;
43877;SDS011;29815;48.184;11.268;2022-09-01T09:48:25;7.10;;;6.50;;
43877;SDS011;29815;48.184;11.268;2022-09-01T09:51:00;6.78;;;6.10;;
43877;SDS011;29815;48.184;11.268;2022-09-01T09:53:48;7.47;;;5.80;;
43877;SDS011;29815;48.184;11.268;2022-09-01T09:56:20;6.90;;;6.20;;
43877;SDS011;29815;48.184;11.268;2022-09-01T09:58:52;9.07;;;7.07;;
43877;SDS011;29815;48.184;11.268;2022-09-01T10:01:27;7.50;;;6.30;;
43877;SDS011;29815;48.184;11.268;2022-09-01T10:04:00;7.25;;;6.45;;
43877;SDS011;29815;48.184;11.268;2022-09-01T10:06:32;7.38;;;6.68;;
43877;SDS011;29815;48.184;11.268;2022-09-01T10:09:15;8.77;;;7.65;;
43877;SDS011;29815;48.184;11.268;2022-09-01T10:12:04;7.53;;;6.78;;
43877;SDS011;29815;48.184;11.268;2022-09-01T10:14:40;9.18;;;7.57;;
43877;SDS011;29815;48.184;11.268;2022-09-01T10:17:20;7.90;;;7.18;;
43877;SDS011;29815;48.184;11.268;2022-09-01T10:20:10;6.75;;;6.15;;
43877;SDS011;29815;48.184;11.268;2022-09-01T10:22:48;9.88;;;6.53;;
43877;SDS011;29815;48.184;11.268;2022-09-01T10:25:19;7.45;;;6.38;;
43877;SDS011;29815;48.184;11.268;2022-09-01T10:27:57;9.43;;;7.57;;
43877;SDS011;29815;48.184;11.268;2022-09-01T10:30:34;7.63;;;6.05;;
43877;SDS011;29815;48.184;11.268;2022-09-01T10:33:10;5.55;;;5.05;;
43877;SDS011;29815;48.184;11.268;2022-09-01T10:35:50;6.75;;;6.10;;
43877;SDS011;29815;48.184;11.268;2022-09-01T10:38:23;7.03;;;5.97;;
43877;SDS011;29815;48.184;11.268;2022-09-01T10:40:56;6.50;;;5.00;;
43877;SDS011;29815;48.184;11.268;2022-09-01T10:43:42;6.00;;;5.43;;
43877;SDS011;29815;48.184;11.268;2022-09-01T10:49:19;8.07;;;5.63;;
43877;SDS011;29815;48.184;11.268;2022-09-01T10:55:34;6.88;;;6.18;;
43877;SDS011;29815;48.184;11.268;2022-09-01T10:58:14;6.93;;;5.65;;
43877;SDS011;29815;48.184;11.268;2022-09-01T11:08:00;4.38;;;3.92;;
43877;SDS011;29815;48.184;11.268;2022-09-01T11:11:23;7.50;;;4.88;;
43877;SDS011;29815;48.184;11.268;2022-09-01T11:14:01;5.18;;;3.95;;
43877;SDS011;29815;48.184;11.268;2022-09-01T11:20:06;5.05;;;2.90;;
43877;SDS011;29815;48.184;11.268;2022-09-01T11:22:39;4.22;;;3.33;;
43877;SDS011;29815;48.184;11.268;2022-09-01T11:31:18;3.30;;;2.88;;
43877;SDS011;29815;48.184;11.268;2022-09-01T11:34:11;3.88;;;3.08;;
43877;SDS011;29815;48.184;11.268;2022-09-01T11:36:55;5.85;;;3.08;;
43877;SDS011;29815;48.184;11.268;2022-09-01T11:39:35;5.90;;;3.75;;
43877;SDS011;29815;48.184;11.268;2022-09-01T11:42:15;3.97;;;3.00;;
43877;SDS011;29815;48.184;11.268;2022-09-01T11:44:51;3.42;;;2.25;;
43877;SDS011;29815;48.184;11.268;2022-09-01T11:47:27;4.25;;;2.78;;
43877;SDS011;29815;48.184;11.268;2022-09-01T11:50:04;3.58;;;2.42;;
43877;SDS011;29815;48.184;11.268;2022-09-01T11:52:51;4.75;;;2.60;;
43877;SDS011;29815;48.184;11.268;2022-09-01T11:55:32;3.53;;;2.90;;
43877;SDS011;29815;48.184;11.268;2022-09-01T11:58:09;3.75;;;2.75;;
43877;SDS011;29815;48.184;11.268;2022-09-01T12:00:44;4.38;;;2.67;;
43877;SDS011;29815;48.184;11.268;2022-09-01T12:03:18;2.60;;;2.40;;
43877;SDS011;29815;48.184;11.268;2022-09-01T12:05:51;3.10;;;2.72;;
43877;SDS011;29815;48.184;11.268;2022-09-01T12:08:27;4.88;;;2.80;;
43877;SDS011;29815;48.184;11.268;2022-09-01T12:11:03;3.15;;;2.65;;
43877;SDS011;29815;48.184;11.268;2022-09-01T12:13:37;3.05;;;2.58;;
43877;SDS011;29815;48.184;11.268;2022-09-01T12:16:09;2.80;;;2.47;;
43877;SDS011;29815;48.184;11.268;2022-09-01T12:18:46;3.08;;;2.67;;
43877;SDS011;29815;48.184;11.268;2022-09-01T12:21:19;3.17;;;2.60;;
43877;SDS011;29815;48.184;11.268;2022-09-01T12:24:01;3.58;;;2.47;;
43877;SDS011;29815;48.184;11.268;2022-09-01T12:26:45;4.05;;;2.17;;
43877;SDS011;29815;48.184;11.268;2022-09-01T12:29:18;3.95;;;2.63;;
43877;SDS011;29815;48.184;11.268;2022-09-01T12:34:24;2.47;;;2.03;;
43877;SDS011;29815;48.184;11.268;2022-09-01T12:37:08;3.20;;;2.40;;
43877;SDS011;29815;48.184;11.268;2022-09-01T12:39:49;2.67;;;2.13;;
43877;SDS011;29815;48.184;11.268;2022-09-01T12:42:22;2.80;;;2.10;;
43877;SDS011;29815;48.184;11.268;2022-09-01T12:45:09;3.13;;;2.13;;
43877;SDS011;29815;48.184;11.268;2022-09-01T12:47:43;5.35;;;2.35;;
43877;SDS011;29815;48.184;11.268;2022-09-01T12:50:36;3.28;;;2.28;;
43877;SDS011;29815;48.184;11.268;2022-09-01T12:53:18;2.92;;;2.15;;
43877;SDS011;29815;48.184;11.268;2022-09-01T12:55:58;3.63;;;2.45;;
43877;SDS011;29815;48.184;11.268;2022-09-01T12:58:50;4.78;;;2.88;;
43877;SDS011;29815;48.184;11.268;2022-09-01T13:01:42;3.47;;;3.05;;
43877;SDS011;29815;48.184;11.268;2022-09-01T13:04:22;4.78;;;3.40;;
43877;SDS011;29815;48.184;11.268;2022-09-01T13:06:59;4.50;;;3.60;;
43877;SDS011;29815;48.184;11.268;2022-09-01T13:09:32;3.28;;;2.95;;
43877;SDS011;29815;48.184;11.268;2022-09-01T13:12:15;4.97;;;3.08;;
43877;SDS011;29815;48.184;11.268;2022-09-01T13:14:48;5.00;;;3.47;;
43877;SDS011;29815;48.184;11.268;2022-09-01T13:17:20;4.45;;;3.08;;
43877;SDS011;29815;48.184;11.268;2022-09-01T13:19:50;4.70;;;3.05;;
43877;SDS011;29815;48.184;11.268;2022-09-01T13:22:20;4.10;;;2.65;;
43877;SDS011;29815;48.184;11.268;2022-09-01T13:24:49;3.15;;;2.85;;
43877;SDS011;29815;48.184;11.268;2022-09-01T13:27:19;5.60;;;2.72;;
43877;SDS011;29815;48.184;11.268;2022-09-01T13:29:49;3.67;;;2.90;;
43877;SDS011;29815;48.184;11.268;2022-09-01T13:32:21;3.00;;;2.53;;
43877;SDS011;29815;48.184;11.268;2022-09-01T13:34:53;2.45;;;2.25;;
43877;SDS011;29815;48.184;11.268;2022-09-01T13:37:23;5.88;;;2.95;;
43877;SDS011;29815;48.184;11.268;2022-09-01T13:39:52;5.68;;;2.83;;
43877;SDS011;29815;48.184;11.268;2022-09-01T13:42:22;5.95;;;2.80;;
43877;SDS011;29815;48.184;11.268;2022-09-01T13:44:55;3.03;;;2.42;;
43877;SDS011;29815;48.184;11.268;2022-09-01T13:47:26;2.72;;;1.92;;
43877;SDS011;29815;48.184;11.268;2022-09-01T13:49:57;2.28;;;1.90;;
43877;SDS011;29815;48.184;11.268;2022-09-01T13:52:38;4.47;;;2.28;;
43877;SDS011;29815;48.184;11.268;2022-09-01T13:55:11;2.70;;;2.22;;
43877;SDS011;29815;48.184;11.268;2022-09-01T13:57:49;3.10;;;2.30;;
43877;SDS011;29815;48.184;11.268;2022-09-01T14:00:23;2.20;;;1.95;;
43877;SDS011;29815;48.184;11.268;2022-09-01T14:02:58;2.70;;;2.20;;
43877;SDS011;29815;48.184;11.268;2022-09-01T14:05:35;7.47;;;2.33;;
43877;SDS011;29815;48.184;11.268;2022-09-01T14:08:10;3.03;;;2.17;;
43877;SDS011;29815;48.184;11.268;2022-09-01T14:10:43;3.63;;;2.60;;
43877;SDS011;29815;48.184;11.268;2022-09-01T14:13:17;3.88;;;2.30;;
43877;SDS011;29815;48.184;11.268;2022-09-01T14:15:49;3.05;;;2.25;;
43877;SDS011;29815;48.184;11.268;2022-09-01T14:18:21;3.65;;;2.63;;
43877;SDS011;29815;48.184;11.268;2022-09-01T14:23:32;5.30;;;2.35;;
43877;SDS011;29815;48.184;11.268;2022-09-01T14:26:06;6.10;;;2.25;;
43877;SDS011;29815;48.184;11.268;2022-09-01T14:28:40;3.92;;;2.42;;
43877;SDS011;29815;48.184;11.268;2022-09-01T14:31:14;3.90;;;2.75;;
43877;SDS011;29815;48.184;11.268;2022-09-01T14:33:47;3.90;;;2.05;;
43877;SDS011;29815;48.184;11.268;2022-09-01T14:36:19;4.10;;;2.73;;
43877;SDS011;29815;48.184;11.268;2022-09-01T14:38:51;2.88;;;2.03;;
43877;SDS011;29815;48.184;11.268;2022-09-01T14:41:22;2.55;;;2.00;;
43877;SDS011;29815;48.184;11.268;2022-09-01T14:43:54;5.27;;;2.30;;
43877;SDS011;29815;48.184;11.268;2022-09-01T14:46:30;2.28;;;2.00;;
43877;SDS011;29815;48.184;11.268;2022-09-01T14:49:02;3.78;;;2.30;;
43877;SDS011;29815;48.184;11.268;2022-09-01T14:51:34;2.63;;;1.90;;
43877;SDS011;29815;48.184;11.268;2022-09-01T14:54:24;2.28;;;1.95;;
43877;SDS011;29815;48.184;11.268;2022-09-01T14:56:54;1.90;;;1.55;;
43877;SDS011;29815;48.184;11.268;2022-09-01T14:59:44;2.42;;;2.03;;
43877;SDS011;29815;48.184;11.268;2022-09-01T15:02:14;4.13;;;2.15;;
43877;SDS011;29815;48.184;11.268;2022-09-01T15:04:46;3.10;;;2.00;;
43877;SDS011;29815;48.184;11.268;2022-09-01T15:07:16;2.73;;;1.57;;
43877;SDS011;29815;48.184;11.268;2022-09-01T15:09:46;3.97;;;1.70;;
43877;SDS011;29815;48.184;11.268;2022-09-01T15:12:17;1.92;;;1.67;;
43877;SDS011;29815;48.184;11.268;2022-09-01T15:14:46;3.80;;;1.95;;
43877;SDS011;29815;48.184;11.268;2022-09-01T15:17:16;4.07;;;2.20;;
43877;SDS011;29815;48.184;11.268;2022-09-01T15:19:47;4.65;;;2.00;;
43877;SDS011;29815;48.184;11.268;2022-09-01T15:22:17;4.28;;;2.20;;
43877;SDS011;29815;48.184;11.268;2022-09-01T15:24:47;1.77;;;1.58;;
43877;SDS011;29815;48.184;11.268;2022-09-01T15:27:22;2.47;;;1.77;;
43877;SDS011;29815;48.184;11.268;2022-09-01T15:29:52;3.22;;;1.85;;
43877;SDS011;29815;48.184;11.268;2022-09-01T15:32:22;3.53;;;1.75;;
43877;SDS011;29815;48.184;11.268;2022-09-01T15:34:56;2.10;;;1.42;;
43877;SDS011;29815;48.184;11.268;2022-09-01T15:37:25;4.10;;;1.70;;
43877;SDS011;29815;48.184;11.268;2022-09-01T15:39:55;2.35;;;1.50;;
43877;SDS011;29815;48.184;11.268;2022-09-01T15:42:25;2.50;;;1.85;;
43877;SDS011;29815;48.184;11.268;2022-09-01T15:44:55;2.28;;;1.80;;
43877;SDS011;29815;48.184;11.268;2022-09-01T15:47:24;2.25;;;1.45;;
43877;SDS011;29815;48.184;11.268;2022-09-01T15:49:55;1.42;;;1.33;;